Time;durP1;ratioP1;P1;durP2;ratioP2;P2;SDS_P1;SDS_P2;PMS_P1;PMS_P2;Temp;Humidity;BMP_temperature;BMP_pressure;BME280_temperature;BME280_humidity;BME280_pressure;Samples;Min_cycle;Max_cycle;Signal;HPM_P1;HPM_P2
2023/08/11 00:01:02;;;;;;;;;;;18.80;67.00;;;;;;6126655;23;20014;-65
2023/08/11 00:03:28;;;;;;;5.55;1.25;;;18.80;66.70;;;;;;6126391;23;19995;-64
2023/08/11 00:05:55;;;;;;;0.50;0.40;;;18.80;66.60;;;;;;6125606;23;20384;-64
2023/08/11 00:08:21;;;;;;;1.00;0.80;;;18.80;66.80;;;;;;6126335;23;20343;-64
2023/08/11 00:10:47;;;;;;;;;;;18.70;67.10;;;;;;6100218;23;20018;-64
2023/08/11 00:13:13;;;;;;;0.30;0.30;;;18.70;66.80;;;;;;6126175;23;19984;-64
2023/08/11 00:15:39;;;;;;;;;;;18.70;67.10;;;;;;6125823;23;20010;-64
2023/08/11 00:18:08;;;;;;;0.40;0.28;;;18.70;66.30;;;;;;6100622;23;19991;-64
2023/08/11 00:20:34;;;;;;;0.70;0.52;;;18.70;67.00;;;;;;6099527;23;20046;-64
2023/08/11 00:23:00;;;;;;;0.10;0.10;;;18.70;67.10;;;;;;6126220;23;20022;-64
2023/08/11 00:25:26;;;;;;;0.10;0.10;;;18.70;67.10;;;;;;6125192;23;20042;-64
2023/08/11 00:27:52;;;;;;;;;;;18.70;67.20;;;;;;6126675;23;20463;-64
2023/08/11 00:30:18;;;;;;;0.32;0.30;;;18.70;67.10;;;;;;6125629;23;19964;-64
2023/08/11 00:32:45;;;;;;;0.30;0.30;;;18.70;67.10;;;;;;6126593;23;20017;-64
2023/08/11 00:35:11;;;;;;;0.30;0.30;;;18.70;67.30;;;;;;6125274;23;20014;-63
2023/08/11 00:37:37;;;;;;;0.40;0.30;;;18.70;67.40;;;;;;6126329;23;20010;-64
2023/08/11 00:40:04;;;;;;;0.30;0.20;;;18.70;67.50;;;;;;6099966;23;20458;-63
2023/08/11 00:42:31;;;;;;;1.17;0.75;;;18.70;67.40;;;;;;6125601;23;20010;-64
2023/08/11 00:44:59;;;;;;;0.28;0.20;;;18.80;67.70;;;;;;6125716;23;20022;-64
2023/08/11 00:47:26;;;;;;;0.52;0.20;;;18.70;67.70;;;;;;6100023;23;20016;-64
2023/08/11 00:49:52;;;;;;;0.30;0.20;;;18.70;67.50;;;;;;6100190;23;20093;-64
2023/08/11 00:52:19;;;;;;;0.40;0.20;;;18.70;67.60;;;;;;6099656;23;20010;-64
2023/08/11 00:54:45;;;;;;;1.20;0.68;;;18.70;67.50;;;;;;6099771;23;20444;-63
2023/08/11 00:57:13;;;;;;;;;;;18.70;68.00;;;;;;6099938;23;20048;-64
2023/08/11 00:59:40;;;;;;;0.88;0.45;;;18.70;67.40;;;;;;6125750;23;19995;-64
2023/08/11 01:02:10;;;;;;;0.63;0.30;;;18.70;67.80;;;;;;6125754;23;20009;-64
2023/08/11 01:04:37;;;;;;;0.52;0.17;;;18.70;67.90;;;;;;6148041;23;20029;-63
2023/08/11 01:07:43;;;;;;;0.30;0.30;;;18.70;67.80;;;;;;6099687;23;20010;-64
2023/08/11 01:10:37;;;;;;;1.10;1.00;;;18.80;68.00;;;;;;6125240;23;20014;-64
2023/08/11 01:13:15;;;;;;;0.38;0.28;;;18.70;67.90;;;;;;6125850;23;20017;-64
2023/08/11 01:16:05;;;;;;;0.60;0.25;;;18.70;67.80;;;;;;6099135;23;20006;-63
2023/08/11 01:18:33;;;;;;;0.10;0.10;;;18.70;67.80;;;;;;6125800;23;20440;-64
2023/08/11 01:21:03;;;;;;;0.45;0.30;;;18.70;67.80;;;;;;6099377;23;20025;-63
2023/08/11 01:23:29;;;;;;;0.10;0.10;;;18.80;67.80;;;;;;6148693;23;20490;-64
2023/08/11 01:25:56;;;;;;;0.10;0.10;;;18.70;67.20;;;;;;6124624;23;20064;-64
2023/08/11 01:28:22;;;;;;;0.70;0.35;;;18.70;67.40;;;;;;6075763;23;20321;-64
2023/08/11 01:30:48;;;;;;;;;;;18.70;67.40;;;;;;6125822;23;20041;-64
2023/08/11 01:33:14;;;;;;;1.08;0.75;;;18.70;67.50;;;;;;6148662;23;19912;-64
2023/08/11 01:35:40;;;;;;;0.10;0.10;;;18.70;67.60;;;;;;6098814;23;20018;-63
2023/08/11 01:38:08;;;;;;;0.68;0.32;;;18.70;68.40;;;;;;6125530;23;20021;-64
2023/08/11 01:40:35;;;;;;;0.22;0.22;;;18.70;68.40;;;;;;6099137;23;20084;-64
2023/08/11 01:43:05;;;;;;;0.57;0.40;;;18.70;68.60;;;;;;6075830;23;20473;-64
2023/08/11 01:45:31;;;;;;;0.55;0.43;;;18.70;68.70;;;;;;6098710;23;20462;-63
2023/08/11 01:47:59;;;;;;;0.17;0.17;;;18.70;68.10;;;;;;6125470;23;20022;-64
2023/08/11 01:50:27;;;;;;;1.17;0.32;;;18.70;68.50;;;;;;6099169;23;20013;-64
2023/08/11 01:52:54;;;;;;;0.70;0.50;;;18.70;68.10;;;;;;6100064;23;20010;-64
2023/08/11 01:55:21;;;;;;;0.10;0.10;;;18.70;68.20;;;;;;6098891;23;20041;-64
2023/08/11 01:57:47;;;;;;;0.20;0.20;;;18.70;68.30;;;;;;6148549;23;20436;-63
2023/08/11 02:00:13;;;;;;;1.40;0.88;;;18.70;68.90;;;;;;6076508;23;20035;-64
2023/08/11 02:02:59;;;;;;;0.80;0.63;;;18.70;69.00;;;;;;6101989;23;20042;-65
2023/08/11 02:05:25;;;;;;;1.00;0.50;;;18.70;68.80;;;;;;6126853;23;20034;-64
2023/08/11 02:07:51;;;;;;;;;;;18.80;68.10;;;;;;6150995;23;20317;-64
2023/08/11 02:10:17;;;;;;;0.20;0.20;;;18.70;68.90;;;;;;6101071;23;19956;-64
2023/08/11 02:12:43;;;;;;;0.55;0.40;;;18.70;68.80;;;;;;6128035;23;20035;-64
2023/08/11 02:15:13;;;;;;;0.22;0.22;;;18.70;69.20;;;;;;6126824;23;20230;-64
2023/08/11 02:17:39;;;;;;;0.40;0.20;;;18.70;69.20;;;;;;6101461;23;20021;-63
2023/08/11 02:20:21;;;;;;;0.15;0.15;;;18.70;68.40;;;;;;6126864;23;20021;-64
2023/08/11 02:22:49;;;;;;;0.45;0.40;;;18.70;68.90;;;;;;6128012;23;20017;-63
2023/08/11 02:25:15;;;;;;;0.40;0.40;;;18.70;68.80;;;;;;6126354;23;20077;-64
2023/08/11 02:27:42;;;;;;;0.22;0.17;;;18.70;68.90;;;;;;6127668;23;20021;-64
2023/08/11 02:30:10;;;;;;;1.13;1.05;;;18.70;68.90;;;;;;6127125;23;20371;-64
2023/08/11 02:32:39;;;;;;;0.35;0.30;;;18.70;68.40;;;;;;6127835;23;20304;-64
2023/08/11 02:35:06;;;;;;;0.30;0.28;;;18.70;69.10;;;;;;6100950;23;20017;-64
2023/08/11 02:37:32;;;;;;;0.55;0.40;;;18.70;69.10;;;;;;6101268;23;20042;-64
2023/08/11 02:39:59;;;;;;;0.15;0.10;;;18.70;69.10;;;;;;6101534;23;20010;-63
2023/08/11 02:42:25;;;;;;;;;;;18.70;69.20;;;;;;6127240;23;20020;-64
2023/08/11 02:44:51;;;;;;;0.30;0.30;;;18.60;69.10;;;;;;6127093;23;20004;-64
2023/08/11 02:47:18;;;;;;;;;;;18.60;69.30;;;;;;6127118;23;20065;-63
2023/08/11 02:49:43;;;;;;;0.45;0.30;;;18.50;69.80;;;;;;6127104;23;20280;-64
2023/08/11 02:52:12;;;;;;;0.20;0.20;;;18.40;70.10;;;;;;6126589;23;20018;-64
2023/08/11 02:54:38;;;;;;;0.85;0.30;;;18.40;70.20;;;;;;6100982;23;20093;-63
2023/08/11 02:57:05;;;;;;;0.35;0.30;;;18.30;70.30;;;;;;6100626;23;20022;-64
2023/08/11 02:59:32;;;;;;;0.20;0.20;;;18.30;70.40;;;;;;6101287;23;20018;-64
2023/08/11 03:01:58;;;;;;;0.90;0.90;;;18.20;70.70;;;;;;6100957;23;20021;-64
2023/08/11 03:04:24;;;;;;;0.47;0.38;;;18.20;70.70;;;;;;6127443;23;20037;-64
2023/08/11 03:06:50;;;;;;;;;;;18.20;70.80;;;;;;6101402;23;20085;-64
2023/08/11 03:09:17;;;;;;;0.40;0.40;;;18.20;70.50;;;;;;6126826;23;19917;-64
2023/08/11 03:11:43;;;;;;;0.20;0.20;;;18.10;70.50;;;;;;6126689;23;20014;-64
2023/08/11 03:14:09;;;;;;;0.63;0.20;;;18.10;70.70;;;;;;6126595;23;20014;-64
2023/08/11 03:16:35;;;;;;;0.90;0.43;;;18.10;70.90;;;;;;6126557;23;20022;-64
2023/08/11 03:19:02;;;;;;;0.30;0.30;;;18.00;71.10;;;;;;6126700;23;20014;-64
2023/08/11 03:21:28;;;;;;;0.17;0.17;;;17.90;71.40;;;;;;6126307;23;20028;-64
2023/08/11 03:23:54;;;;;;;;;;;17.90;71.50;;;;;;6101209;23;20440;-64
2023/08/11 03:26:20;;;;;;;0.10;0.10;;;17.90;71.20;;;;;;6126031;23;19943;-64
2023/08/11 03:28:46;;;;;;;;;;;17.90;71.30;;;;;;6101684;23;20021;-64
2023/08/11 03:31:12;;;;;;;0.60;0.20;;;18.00;70.80;;;;;;6149234;23;20397;-64
2023/08/11 03:33:38;;;;;;;0.10;0.10;;;18.00;70.60;;;;;;6100850;23;20021;-64
2023/08/11 03:36:05;;;;;;;0.10;0.10;;;18.00;70.70;;;;;;6125868;23;20313;-64
2023/08/11 03:38:31;;;;;;;0.30;0.30;;;18.10;70.70;;;;;;6126873;23;20006;-64
2023/08/11 03:40:57;;;;;;;0.10;0.10;;;18.10;70.70;;;;;;6126018;23;20093;-64
2023/08/11 03:43:23;;;;;;;0.45;0.17;;;18.10;70.80;;;;;;6126540;23;20010;-64
2023/08/11 03:45:51;;;;;;;0.10;0.10;;;18.10;70.70;;;;;;6100072;23;20424;-64
2023/08/11 03:48:17;;;;;;;0.20;0.20;;;18.10;70.60;;;;;;6100618;23;20014;-64
2023/08/11 03:50:45;;;;;;;;;;;18.10;70.70;;;;;;6100809;23;20010;-64
2023/08/11 03:53:12;;;;;;;0.20;0.20;;;18.20;70.70;;;;;;6101085;23;19961;-64
2023/08/11 03:55:38;;;;;;;0.10;0.10;;;18.10;70.00;;;;;;6125457;23;20020;-63
2023/08/11 03:58:04;;;;;;;1.05;0.60;;;18.20;70.60;;;;;;6100336;23;20022;-64
2023/08/11 04:00:30;;;;;;;0.98;0.70;;;18.20;70.70;;;;;;6099612;23;20344;-64
2023/08/11 04:02:56;;;;;;;0.15;0.15;;;18.20;70.50;;;;;;6100520;23;20106;-63
2023/08/11 04:05:24;;;;;;;1.08;0.98;;;18.20;70.60;;;;;;6125718;23;20018;-64
2023/08/11 04:07:50;;;;;;;0.10;0.10;;;18.20;70.70;;;;;;6126871;23;20092;-64
2023/08/11 04:10:16;;;;;;;0.10;0.10;;;18.20;70.60;;;;;;6075804;23;20022;-64
2023/08/11 04:12:43;;;;;;;0.10;0.10;;;18.20;70.60;;;;;;6127000;23;20010;-64
2023/08/11 04:15:09;;;;;;;0.17;0.17;;;18.20;70.50;;;;;;6099589;23;20017;-64
2023/08/11 04:17:36;;;;;;;0.10;0.10;;;18.20;70.00;;;;;;6126706;23;20548;-64
2023/08/11 04:22:56;;;;;;;0.10;0.10;;;18.20;70.40;;;;;;6105893;23;20018;-64
2023/08/11 04:25:22;;;;;;;;;;;18.20;70.60;;;;;;6100072;23;20010;-64
2023/08/11 04:27:49;;;;;;;0.22;0.22;;;18.20;70.60;;;;;;6126438;23;19983;-64
2023/08/11 04:30:15;;;;;;;0.20;0.20;;;18.20;70.60;;;;;;6099733;23;20014;-64
2023/08/11 04:32:43;;;;;;;0.98;0.95;;;18.20;70.70;;;;;;6100612;23;20089;-63
2023/08/11 04:35:09;;;;;;;0.40;0.40;;;18.20;70.60;;;;;;6125323;23;20037;-64
2023/08/11 04:37:35;;;;;;;0.10;0.10;;;18.20;70.20;;;;;;6126434;23;20545;-64
2023/08/11 04:40:06;;;;;;;0.10;0.10;;;18.20;70.90;;;;;;6126118;23;20010;-63
2023/08/11 04:42:32;;;;;;;0.10;0.10;;;18.20;70.80;;;;;;6126128;23;20014;-64
2023/08/11 04:44:58;;;;;;;3.47;0.50;;;18.20;70.90;;;;;;6099699;23;20014;-64
2023/08/11 04:47:24;;;;;;;0.70;0.35;;;18.20;70.70;;;;;;6125944;23;20014;-64
2023/08/11 04:49:50;;;;;;;1.08;0.60;;;18.30;70.70;;;;;;6125806;23;20077;-64
2023/08/11 04:52:17;;;;;;;0.10;0.10;;;18.30;70.70;;;;;;6099779;23;20057;-64
2023/08/11 04:54:43;;;;;;;0.60;0.60;;;18.30;70.60;;;;;;6099595;23;20037;-64
2023/08/11 04:57:09;;;;;;;0.88;0.35;;;18.30;70.80;;;;;;6125449;23;20025;-64
2023/08/11 04:59:35;;;;;;;0.10;0.10;;;18.30;70.80;;;;;;6125913;23;20017;-64
2023/08/11 05:02:01;;;;;;;0.30;0.30;;;18.30;70.80;;;;;;6099212;23;20014;-64
2023/08/11 05:04:27;;;;;;;0.20;0.20;;;18.30;70.70;;;;;;6125736;23;20068;-64
2023/08/11 05:06:54;;;;;;;0.40;0.38;;;18.30;70.60;;;;;;6075370;23;20375;-64
2023/08/11 05:09:20;;;;;;;0.22;0.20;;;18.40;70.70;;;;;;6125820;23;20096;-64
2023/08/11 05:11:45;;;;;;;;;;;18.30;70.70;;;;;;6099828;23;20081;-64
2023/08/11 05:14:14;;;;;;;0.32;0.25;;;18.40;70.60;;;;;;6148604;23;19921;-64
2023/08/11 05:16:40;;;;;;;0.10;0.10;;;18.30;70.30;;;;;;6099838;23;20014;-64
2023/08/11 05:19:06;;;;;;;;;;;18.30;70.40;;;;;;6100223;23;20093;-64
2023/08/11 05:21:32;;;;;;;0.73;0.28;;;18.40;70.50;;;;;;6125564;23;19917;-64
2023/08/11 05:23:58;;;;;;;;;;;18.40;70.30;;;;;;6100163;23;20009;-63
2023/08/11 05:26:24;;;;;;;0.20;0.20;;;18.40;70.30;;;;;;6124995;23;19959;-64
2023/08/11 05:28:50;;;;;;;0.75;0.40;;;18.40;70.30;;;;;;6125804;23;20014;-64
2023/08/11 05:31:17;;;;;;;;;;;18.40;70.40;;;;;;6099701;23;20022;-65
2023/08/11 05:33:42;;;;;;;0.30;0.20;;;18.40;70.40;;;;;;6125214;23;20251;-64
2023/08/11 05:36:09;;;;;;;0.10;0.10;;;18.40;70.20;;;;;;6098893;23;20014;-64
2023/08/11 05:38:35;;;;;;;0.20;0.20;;;18.40;70.20;;;;;;6099669;23;20069;-64
2023/08/11 05:41:01;;;;;;;0.20;0.20;;;18.40;70.10;;;;;;6125081;23;20020;-64
2023/08/11 05:43:27;;;;;;;0.68;0.30;;;18.50;70.50;;;;;;6125429;23;20013;-64
2023/08/11 05:45:53;;;;;;;0.25;0.22;;;18.60;70.30;;;;;;6124884;23;20092;-64
2023/08/11 05:48:19;;;;;;;0.30;0.17;;;18.60;70.20;;;;;;6125516;23;20081;-64
2023/08/11 05:50:46;;;;;;;0.10;0.10;;;18.70;70.00;;;;;;6099258;23;20022;-64
2023/08/11 05:53:12;;;;;;;0.30;0.20;;;18.80;69.70;;;;;;6099660;23;20018;-65
2023/08/11 05:55:39;;;;;;;0.10;0.10;;;18.80;69.40;;;;;;6124620;23;20014;-64
2023/08/11 05:58:05;;;;;;;0.45;0.30;;;18.80;69.20;;;;;;6125365;23;20410;-64
2023/08/11 06:00:31;;;;;;;0.47;0.30;;;18.90;69.10;;;;;;6099178;23;20010;-64
2023/08/11 06:02:57;;;;;;;0.57;0.40;;;19.00;68.80;;;;;;6125652;23;20444;-64
2023/08/11 06:05:23;;;;;;;0.20;0.20;;;19.00;68.60;;;;;;6099066;23;20014;-64
2023/08/11 06:07:50;;;;;;;1.45;0.20;;;19.10;68.50;;;;;;6125916;23;20030;-64
2023/08/11 06:10:16;;;;;;;0.10;0.10;;;19.10;67.60;;;;;;6098892;23;20029;-64
2023/08/11 06:12:42;;;;;;;0.20;0.20;;;19.30;68.00;;;;;;6099826;23;20428;-64
2023/08/11 06:15:09;;;;;;;0.20;0.20;;;19.30;68.00;;;;;;6124649;23;20014;-64
2023/08/11 06:17:36;;;;;;;0.17;0.17;;;19.40;67.70;;;;;;6125955;23;20009;-64
2023/08/11 06:20:05;;;;;;;0.50;0.28;;;19.50;67.30;;;;;;6099324;23;20044;-64
2023/08/11 06:22:31;;;;;;;0.10;0.10;;;19.60;67.50;;;;;;6122490;23;20041;-64
2023/08/11 06:24:58;;;;;;;0.20;0.20;;;19.70;66.70;;;;;;6090479;23;20013;-64
2023/08/11 06:27:25;;;;;;;0.20;0.20;;;19.80;67.10;;;;;;6116730;23;20067;-64
2023/08/11 06:29:51;;;;;;;0.20;0.20;;;19.90;66.70;;;;;;6117203;23;20017;-64
2023/08/11 06:32:17;;;;;;;0.82;0.52;;;20.00;66.40;;;;;;6117157;23;20451;-65
2023/08/11 06:34:43;;;;;;;0.32;0.30;;;20.10;66.20;;;;;;6091129;23;20293;-65
2023/08/11 06:37:09;;;;;;;0.10;0.10;;;20.20;65.70;;;;;;6116486;23;20013;-64
2023/08/11 06:39:35;;;;;;;1.25;1.15;;;20.30;65.70;;;;;;6066856;23;20010;-64
2023/08/11 06:42:01;;;;;;;0.80;0.40;;;20.40;65.30;;;;;;6090645;23;20061;-65
2023/08/11 06:44:27;;;;;;;0.10;0.10;;;20.50;65.20;;;;;;6117000;23;20022;-64
2023/08/11 06:46:53;;;;;;;0.32;0.20;;;20.50;64.90;;;;;;6118857;23;20387;-64
2023/08/11 06:49:19;;;;;;;0.47;0.20;;;20.70;64.80;;;;;;6118920;23;20065;-65
2023/08/11 06:51:45;;;;;;;0.17;0.17;;;20.80;63.80;;;;;;6118694;23;20010;-64
2023/08/11 06:54:11;;;;;;;;;;;20.90;62.50;;;;;;6119792;23;20044;-64
2023/08/11 06:56:37;;;;;;;0.82;0.40;;;21.00;63.10;;;;;;6118204;23;19925;-65
2023/08/11 06:59:03;;;;;;;;;;;21.20;61.80;;;;;;6119817;23;20080;-64
2023/08/11 07:01:29;;;;;;;0.28;0.20;;;21.30;61.80;;;;;;6117892;23;19991;-65
2023/08/11 07:03:55;;;;;;;;;;;21.50;60.90;;;;;;6119839;23;20035;-65
2023/08/11 07:06:21;;;;;;;0.95;0.40;;;21.70;61.40;;;;;;6141587;23;20346;-64
2023/08/11 07:08:47;;;;;;;0.20;0.20;;;21.90;58.20;;;;;;6093457;23;20025;-65
2023/08/11 07:11:13;;;;;;;0.20;0.20;;;22.10;58.30;;;;;;6068369;23;20022;-65
2023/08/11 07:13:39;;;;;;;0.20;0.20;;;22.30;58.80;;;;;;6118113;23;20014;-65
2023/08/11 07:16:05;;;;;;;0.25;0.20;;;22.60;58.30;;;;;;6118164;23;20020;-65
2023/08/11 07:18:31;;;;;;;;;;;22.90;57.60;;;;;;6093444;23;20498;-65
2023/08/11 07:20:57;;;;;;;0.60;0.47;;;23.20;58.40;;;;;;6118256;23;19992;-64
2023/08/11 07:23:23;;;;;;;;;;;23.40;56.60;;;;;;6119577;23;20010;-65
2023/08/11 07:25:49;;;;;;;0.20;0.20;;;23.50;54.80;;;;;;6117831;23;20287;-65
2023/08/11 07:28:14;;;;;;;;;;;23.80;54.30;;;;;;6093575;23;20301;-65
2023/08/11 07:30:41;;;;;;;0.65;0.25;;;24.00;53.90;;;;;;6118184;23;19913;-65
2023/08/11 07:33:07;;;;;;;0.20;0.20;;;24.00;50.00;;;;;;6119015;23;20013;-64
2023/08/11 07:35:33;;;;;;;1.23;0.82;;;23.90;51.60;;;;;;6092501;23;20336;-64
2023/08/11 07:37:59;;;;;;;0.95;0.65;;;24.10;52.20;;;;;;6118574;23;20442;-65
2023/08/11 07:40:25;;;;;;;;;;;24.20;52.00;;;;;;6118918;23;20038;-65
2023/08/11 07:42:51;;;;;;;0.45;0.25;;;24.40;52.60;;;;;;6118781;23;19996;-65
2023/08/11 07:45:17;;;;;;;;;;;24.40;48.70;;;;;;6093025;23;20022;-65
2023/08/11 07:47:43;;;;;;;0.17;0.17;;;24.70;50.60;;;;;;6118852;23;20268;-64
2023/08/11 07:50:09;;;;;;;;;;;24.90;50.00;;;;;;6093316;23;20018;-65
2023/08/11 07:52:35;;;;;;;0.70;0.30;;;25.20;49.90;;;;;;6119052;23;19995;-65
2023/08/11 07:55:01;;;;;;;0.82;0.30;;;25.60;48.30;;;;;;6118609;23;20037;-65
2023/08/11 07:57:27;;;;;;;0.68;0.45;;;26.00;48.00;;;;;;6117710;23;20028;-65
2023/08/11 07:59:53;;;;;;;0.10;0.10;;;26.40;47.40;;;;;;6118752;23;20037;-65
2023/08/11 08:02:19;;;;;;;0.20;0.20;;;26.90;46.20;;;;;;6118278;23;20017;-66
2023/08/11 08:04:46;;;;;;;0.80;0.70;;;27.50;45.40;;;;;;6118398;23;20018;-66
2023/08/11 08:07:12;;;;;;;0.40;0.40;;;27.90;44.20;;;;;;6117396;23;20455;-65
2023/08/11 08:09:38;;;;;;;0.68;0.68;;;28.40;42.70;;;;;;6118647;23;20064;-66
2023/08/11 08:12:07;;;;;;;0.20;0.20;;;28.90;39.80;;;;;;6118349;23;20065;-66
2023/08/11 08:14:34;;;;;;;1.25;1.02;;;29.40;40.20;;;;;;6118809;23;20010;-66
2023/08/11 08:17:01;;;;;;;0.20;0.20;;;29.90;36.80;;;;;;6117944;23;20836;-67
2023/08/11 08:19:27;;;;;;;1.00;0.65;;;30.50;37.60;;;;;;6118379;23;20017;-67
2023/08/11 08:21:53;;;;;;;0.20;0.20;;;31.10;36.90;;;;;;6091728;23;20014;-67
2023/08/11 08:24:19;;;;;;;0.57;0.50;;;31.60;35.10;;;;;;6092801;23;20029;-67
2023/08/11 08:26:47;;;;;;;0.22;0.22;;;32.10;29.90;;;;;;6117556;23;20467;-68
2023/08/11 08:29:14;;;;;;;0.20;0.20;;;32.50;32.10;;;;;;6118493;23;20014;-67
2023/08/11 08:31:40;;;;;;;0.40;0.30;;;32.80;29.90;;;;;;6118025;23;20014;-68
2023/08/11 08:34:07;;;;;;;0.43;0.35;;;33.40;30.30;;;;;;6118319;23;20017;-68
2023/08/11 08:36:33;;;;;;;0.65;0.47;;;34.00;29.80;;;;;;6091347;23;20021;-67
2023/08/11 08:38:59;;;;;;;0.40;0.40;;;34.50;28.80;;;;;;6118231;23;20013;-68
2023/08/11 08:41:28;;;;;;;0.40;0.38;;;35.00;27.90;;;;;;6067808;23;20410;-67
2023/08/11 08:44:13;;;;;;;0.25;0.20;;;35.70;26.80;;;;;;6092337;23;20009;-68
2023/08/11 08:46:40;;;;;;;0.70;0.70;;;36.20;26.10;;;;;;6091795;23;20010;-68
2023/08/11 08:49:26;;;;;;;0.50;0.50;;;36.70;25.60;;;;;;6091856;23;20458;-68
2023/08/11 08:51:56;;;;;;;0.30;0.30;;;37.20;24.10;;;;;;6120001;23;20018;-68
2023/08/11 08:54:24;;;;;;;0.50;0.50;;;37.50;24.00;;;;;;6093919;23;20014;-69
2023/08/11 08:56:52;;;;;;;0.65;0.57;;;38.10;23.20;;;;;;6093532;23;20373;-68
2023/08/11 08:59:18;;;;;;;0.60;0.40;;;38.60;22.70;;;;;;6093515;23;20384;-68
2023/08/11 09:01:44;;;;;;;0.88;0.77;;;39.00;22.30;;;;;;6118890;23;20088;-69
2023/08/11 09:04:11;;;;;;;0.68;0.68;;;39.30;21.40;;;;;;6118618;23;20013;-68
2023/08/11 09:06:38;;;;;;;0.47;0.47;;;39.70;21.00;;;;;;6091215;23;20014;-68
2023/08/11 09:09:07;;;;;;;0.50;0.50;;;40.30;20.00;;;;;;6092102;23;20456;-68
2023/08/11 09:11:33;;;;;;;0.88;0.80;;;40.80;20.20;;;;;;6091735;23;20010;-67
2023/08/11 09:14:20;;;;;;;0.60;0.60;;;41.00;19.20;;;;;;6117998;23;20014;-68
2023/08/11 09:16:47;;;;;;;0.47;0.47;;;41.40;18.60;;;;;;6091362;23;20022;-69
2023/08/11 09:19:13;;;;;;;0.60;0.60;;;41.70;18.10;;;;;;6091839;23;20367;-68
2023/08/11 09:21:58;;;;;;;0.50;0.50;;;42.10;18.30;;;;;;6091310;23;20057;-68
2023/08/11 09:24:24;;;;;;;0.83;0.83;;;42.40;18.40;;;;;;6117221;23;20021;-68
2023/08/11 09:26:51;;;;;;;0.60;0.60;;;42.90;17.90;;;;;;6115163;23;20013;-67
2023/08/11 09:29:18;;;;;;;0.50;0.50;;;43.40;17.60;;;;;;6090818;23;20010;-67
2023/08/11 09:32:04;;;;;;;0.60;0.55;;;43.70;17.30;;;;;;6090644;23;20014;-68
2023/08/11 09:34:30;;;;;;;0.60;0.60;;;44.00;16.60;;;;;;6091138;23;20091;-69
2023/08/11 09:36:56;;;;;;;0.73;0.73;;;44.40;16.40;;;;;;6117403;23;20021;-68
2023/08/11 09:39:22;;;;;;;0.60;0.60;;;44.90;16.20;;;;;;6067984;23;20014;-68
2023/08/11 09:41:49;;;;;;;0.50;0.50;;;45.30;15.90;;;;;;6091144;23;20014;-68
2023/08/11 09:44:17;;;;;;;0.65;0.65;;;45.70;15.50;;;;;;6117830;23;20746;-67
2023/08/11 09:46:44;;;;;;;1.35;1.25;;;46.00;15.10;;;;;;6091284;23;20021;-67
2023/08/11 09:49:10;;;;;;;1.10;1.00;;;46.30;14.30;;;;;;6092179;23;20391;-69
2023/08/11 09:51:39;;;;;;;1.20;1.10;;;46.70;14.20;;;;;;6117778;23;20068;-68
2023/08/11 09:54:08;;;;;;;0.80;0.80;;;46.80;12.20;;;;;;6092023;23;20060;-69
2023/08/11 09:56:36;;;;;;;1.25;1.15;;;47.10;13.80;;;;;;6091152;23;20025;-68
2023/08/11 09:59:21;;;;;;;1.33;1.23;;;47.30;13.50;;;;;;6118144;23;20014;-68
2023/08/11 10:01:48;;;;;;;1.02;0.93;;;47.70;13.30;;;;;;6091397;23;20404;-68
2023/08/11 10:04:35;;;;;;;0.70;0.70;;;47.90;13.00;;;;;;6092057;23;20118;-68
2023/08/11 10:07:03;;;;;;;1.13;1.02;;;47.70;11.60;;;;;;6117249;23;20508;-68
2023/08/11 10:09:31;;;;;;;1.48;1.38;;;47.30;13.00;;;;;;6092234;23;20065;-67
2023/08/11 10:11:59;;;;;;;1.23;1.13;;;47.60;12.50;;;;;;6117372;23;20550;-68
2023/08/11 10:14:27;;;;;;;1.35;1.25;;;48.00;12.90;;;;;;6117424;23;20021;-68
2023/08/11 10:16:54;;;;;;;1.65;1.55;;;48.70;12.60;;;;;;6117262;23;20022;-68
2023/08/11 10:19:20;;;;;;;1.20;1.10;;;49.20;12.80;;;;;;6091629;23;20343;-68
2023/08/11 10:21:46;;;;;;;1.38;1.15;;;49.70;11.90;;;;;;6068775;23;20022;-67
2023/08/11 10:24:13;;;;;;;1.50;1.40;;;49.90;12.00;;;;;;6119473;23;20495;-67
2023/08/11 10:26:40;;;;;;;2.45;2.20;;;49.10;11.70;;;;;;6119216;23;20065;-67
2023/08/11 10:29:07;;;;;;;2.97;2.05;;;49.10;12.10;;;;;;6093975;23;20077;-67
2023/08/11 10:31:34;;;;;;;1.20;1.10;;;49.00;11.50;;;;;;6093638;23;20084;-67
2023/08/11 10:34:06;;;;;;;1.20;1.10;;;49.10;12.20;;;;;;6119662;23;20443;-67
2023/08/11 10:36:33;;;;;;;1.30;1.20;;;47.10;12.50;;;;;;6093180;23;20018;-67
2023/08/11 10:39:21;;;;;;;1.25;1.10;;;47.70;12.40;;;;;;6119716;23;20458;-68
2023/08/11 10:41:49;;;;;;;1.45;1.33;;;47.90;12.10;;;;;;6093990;23;20081;-67
2023/08/11 10:44:34;;;;;;;1.05;1.00;;;48.50;11.00;;;;;;6119625;23;20495;-69
2023/08/11 10:47:02;;;;;;;;;;;48.60;12.20;;;;;;6119736;23;20014;-68
2023/08/11 10:49:49;;;;;;;1.52;1.13;;;49.10;11.30;;;;;;6141812;23;20368;-67
2023/08/11 10:52:18;;;;;;;1.27;1.05;;;48.30;12.80;;;;;;6069159;23;20041;-67
2023/08/11 10:55:03;;;;;;;0.90;0.90;;;46.70;13.20;;;;;;6119300;23;20073;-68
2023/08/11 10:57:33;;;;;;;0.90;0.90;;;44.80;13.50;;;;;;6119076;23;20363;-68
2023/08/11 10:59:59;;;;;;;0.70;0.70;;;43.40;14.70;;;;;;6119100;23;20018;-68
2023/08/11 11:02:25;;;;;;;0.70;0.70;;;44.40;14.50;;;;;;6117837;23;20082;-68
2023/08/11 11:04:53;;;;;;;1.23;1.00;;;46.30;13.90;;;;;;6118691;23;20018;-68
2023/08/11 11:07:24;;;;;;;0.80;0.80;;;47.50;12.70;;;;;;6118636;23;20017;-67
2023/08/11 11:09:52;;;;;;;1.17;1.08;;;48.40;11.90;;;;;;6093803;23;20088;-68
2023/08/11 11:12:18;;;;;;;1.45;1.20;;;48.60;11.80;;;;;;6117921;23;20038;-68
2023/08/11 11:14:44;;;;;;;1.30;1.20;;;49.40;11.40;;;;;;6092488;23;20037;-68
2023/08/11 11:17:11;;;;;;;1.30;1.20;;;50.10;11.90;;;;;;6118860;23;20501;-68
2023/08/11 11:19:37;;;;;;;1.35;1.20;;;51.10;11.70;;;;;;6119014;23;20021;-68
2023/08/11 11:22:03;;;;;;;1.45;1.35;;;51.70;10.80;;;;;;6118522;23;20018;-68
2023/08/11 11:24:29;;;;;;;1.70;1.60;;;52.40;10.30;;;;;;6118840;23;20025;-68
2023/08/11 11:26:55;;;;;;;1.58;1.48;;;52.80;10.10;;;;;;6118593;23;20010;-69
2023/08/11 11:29:23;;;;;;;1.70;1.58;;;53.10;9.70;;;;;;6119233;23;20010;-68
2023/08/11 11:31:50;;;;;;;2.00;1.80;;;53.50;10.00;;;;;;6118603;23;20021;-68
2023/08/11 11:34:17;;;;;;;1.92;1.75;;;54.00;9.90;;;;;;6092989;23;20021;-68
2023/08/11 11:36:43;;;;;;;1.88;1.70;;;54.20;9.80;;;;;;6092324;23;20078;-68
2023/08/11 11:39:10;;;;;;;2.00;1.80;;;54.70;9.50;;;;;;6092876;23;20025;-67
2023/08/11 11:41:36;;;;;;;2.63;2.42;;;54.80;9.20;;;;;;6118672;23;20064;-68
2023/08/11 11:44:02;;;;;;;3.72;2.40;;;54.80;8.90;;;;;;6118772;23;20018;-68
2023/08/11 11:46:32;;;;;;;2.58;2.28;;;54.80;9.00;;;;;;6118240;23;20011;-67
2023/08/11 11:49:01;;;;;;;2.10;1.90;;;54.80;8.40;;;;;;6093258;23;20018;-68
2023/08/11 11:51:29;;;;;;;2.50;2.30;;;54.80;8.40;;;;;;6092363;23;20345;-68
2023/08/11 11:53:58;;;;;;;2.85;2.40;;;55.30;8.80;;;;;;6068190;23;20014;-67
2023/08/11 11:56:28;;;;;;;3.55;3.25;;;55.60;9.00;;;;;;6067456;23;20010;-67
2023/08/11 11:58:56;;;;;;;2.80;2.50;;;55.70;8.30;;;;;;6119194;23;20018;-67
2023/08/11 12:01:25;;;;;;;2.85;2.58;;;56.20;8.30;;;;;;6117704;23;20013;-68
2023/08/11 12:03:53;;;;;;;2.65;2.42;;;54.70;8.60;;;;;;6092336;23;20021;-67
2023/08/11 12:06:20;;;;;;;3.08;2.70;;;53.70;8.60;;;;;;6091861;23;20013;-67
2023/08/11 12:09:08;;;;;;;2.40;2.20;;;53.80;9.50;;;;;;6118365;23;20028;-67
2023/08/11 12:11:35;;;;;;;2.45;2.25;;;54.20;9.30;;;;;;6092984;23;20021;-67
2023/08/11 12:14:02;;;;;;;2.30;2.10;;;54.90;8.40;;;;;;6091665;23;20022;-68
2023/08/11 12:16:28;;;;;;;2.40;2.20;;;55.30;8.60;;;;;;6117688;23;20435;-68
2023/08/11 12:19:00;;;;;;;2.42;2.10;;;55.40;8.70;;;;;;6092502;23;20345;-68
2023/08/11 12:21:27;;;;;;;2.80;2.53;;;55.30;8.70;;;;;;6064427;23;20014;-66
2023/08/11 12:23:53;;;;;;;3.33;3.00;;;55.70;7.70;;;;;;6063766;23;20022;-68
2023/08/11 12:26:20;;;;;;;2.83;2.53;;;55.90;7.90;;;;;;6062133;23;20080;-68
2023/08/11 12:28:46;;;;;;;3.17;2.88;;;56.10;8.80;;;;;;6089117;23;20041;-68
2023/08/11 12:31:12;;;;;;;3.20;2.90;;;56.40;8.60;;;;;;6088615;23;20018;-68
2023/08/11 12:33:39;;;;;;;3.40;3.10;;;56.90;8.30;;;;;;6089218;23;20089;-67
2023/08/11 12:36:06;;;;;;;3.30;3.00;;;57.20;7.60;;;;;;6088429;23;20365;-67
2023/08/11 12:38:33;;;;;;;3.60;3.30;;;57.10;8.60;;;;;;6063606;23;20014;-67
2023/08/11 12:40:59;;;;;;;3.67;3.38;;;57.30;8.30;;;;;;6088612;23;20014;-68
2023/08/11 12:43:25;;;;;;;3.42;3.13;;;57.30;7.50;;;;;;6088805;23;20436;-68
2023/08/11 12:45:51;;;;;;;3.10;2.80;;;56.80;8.20;;;;;;6088034;23;20011;-68
2023/08/11 12:48:18;;;;;;;3.70;3.40;;;57.10;8.60;;;;;;6061808;23;20026;-67
2023/08/11 12:50:44;;;;;;;3.33;2.92;;;56.10;9.00;;;;;;6088351;23;20018;-68
2023/08/11 12:53:10;;;;;;;4.03;3.63;;;56.00;8.60;;;;;;6063101;23;20017;-67
2023/08/11 12:55:39;;;;;;;3.28;2.97;;;56.40;8.20;;;;;;6062267;23;20018;-67
2023/08/11 12:58:06;;;;;;;4.18;3.78;;;56.80;8.10;;;;;;6087798;23;20022;-68
2023/08/11 13:00:34;;;;;;;5.72;4.22;;;57.50;8.10;;;;;;6087440;23;20011;-68